createdAt,value
2019-04-04T04:02:18.594Z,91819.48
2019-04-04T04:04:44.594Z,91815.06
2019-04-04T04:07:13.931Z,91802.22
2019-04-04T04:09:38.047Z,91793.26
2019-04-04T04:12:03.808Z,91790.92
2019-04-04T04:14:29.910Z,91796.57
2019-04-04T04:16:55.601Z,91797.03
2019-04-04T04:19:24.171Z,91794.38
2019-04-04T04:21:49.330Z,91790.94
2019-04-04T04:24:15.032Z,91799.95
2019-04-04T04:26:42.094Z,91794.70
2019-04-04T04:29:08.016Z,91788.05
2019-04-04T04:31:34.130Z,91779.33
2019-04-04T04:34:01.578Z,91767.91
2019-04-04T04:36:27.428Z,91762.30
2019-04-04T04:38:53.199Z,91767.03
2019-04-04T04:41:20.378Z,91758.73
2019-04-04T04:43:46.919Z,91751.41
2019-04-04T04:46:16.944Z,91741.48
2019-04-04T04:48:40.217Z,91735.00
2019-04-04T04:51:05.990Z,91730.91
2019-04-04T04:53:31.990Z,91734.00
2019-04-04T04:56:00.443Z,91731.93
2019-04-04T04:58:25.373Z,91718.34
2019-04-04T05:00:51.166Z,91718.80
2019-04-04T05:03:16.860Z,91713.48
2019-04-04T05:05:42.577Z,91710.78
2019-04-04T05:08:10.174Z,91718.34
2019-04-04T05:10:36.367Z,91710.27
2019-04-04T05:13:02.054Z,91701.71
2019-04-04T05:15:28.093Z,91695.95
2019-04-04T05:17:54.087Z,91680.52
2019-04-04T05:20:20.140Z,91692.24
2019-04-04T05:22:45.845Z,91694.89
2019-04-04T05:25:11.552Z,91678.46
2019-04-04T05:27:37.924Z,91670.13
2019-04-04T05:30:08.194Z,91665.16
2019-04-04T05:32:32.729Z,91680.20
2019-04-04T05:35:00.983Z,91679.42
2019-04-04T05:37:27.591Z,91688.78
2019-04-04T05:39:55.314Z,91697.80
2019-04-04T05:42:21.247Z,91693.73
2019-04-04T05:44:47.019Z,91692.56
2019-04-04T05:47:12.788Z,91684.67
2019-04-04T05:49:38.882Z,91689.33
2019-04-04T05:52:05.037Z,91692.55
2019-04-04T05:54:30.712Z,91674.30
2019-04-04T05:56:56.589Z,91656.77
2019-04-04T05:59:23.868Z,91650.29
2019-04-04T06:01:50.536Z,91672.94
2019-04-04T06:04:17.231Z,91668.89
2019-04-04T06:06:44.136Z,91662.47
2019-04-04T06:09:10.154Z,91659.19
2019-04-04T06:11:36.282Z,91646.06
2019-04-04T06:14:02.055Z,91645.90
2019-04-04T06:16:27.816Z,91650.47
2019-04-04T06:18:53.577Z,91669.69
2019-04-04T06:21:19.349Z,91676.17
2019-04-04T06:23:45.133Z,91667.55
2019-04-04T06:26:10.941Z,91670.76
2019-04-04T06:28:36.698Z,91665.91
2019-04-04T06:31:02.390Z,91689.00
2019-04-04T06:33:28.126Z,91701.23
2019-04-04T06:35:53.876Z,91722.79
2019-04-04T06:38:22.967Z,91728.89
2019-04-04T06:40:47.111Z,91734.41
2019-04-04T06:43:12.854Z,91732.77
2019-04-04T06:45:38.590Z,91717.38
2019-04-04T06:48:04.694Z,91725.09
2019-04-04T06:50:30.378Z,91730.94
2019-04-04T06:52:56.695Z,91749.05
2019-04-04T06:55:22.991Z,91758.14
2019-04-04T06:57:51.145Z,91770.92
2019-04-04T07:00:16.669Z,91776.44
2019-04-04T07:02:42.885Z,91772.57
2019-04-04T07:05:10.599Z,91771.86
2019-04-04T07:07:36.786Z,91762.86
2019-04-04T07:10:05.239Z,91749.86
2019-04-04T07:12:30.961Z,91752.05
2019-04-04T07:14:57.000Z,91756.67
2019-04-04T07:17:22.974Z,91751.25
2019-04-04T07:19:48.693Z,91766.80
2019-04-04T07:22:14.447Z,91769.02
2019-04-04T07:24:40.220Z,91771.38
2019-04-04T07:27:05.976Z,91784.06
2019-04-04T07:29:31.767Z,91801.72
2019-04-04T07:31:57.533Z,91801.42
2019-04-04T07:34:23.555Z,91806.66
2019-04-04T07:36:51.217Z,91816.86
2019-04-04T07:39:16.871Z,91822.89
2019-04-04T07:41:45.018Z,91819.69
2019-04-04T07:44:10.634Z,91822.66
2019-04-04T07:46:36.394Z,91814.45
2019-04-04T07:49:02.295Z,91823.06
2019-04-04T07:51:28.137Z,91823.03
2019-04-04T07:53:55.595Z,91827.53
2019-04-04T07:56:21.393Z,91836.72
2019-04-04T07:58:47.129Z,91837.73
2019-04-04T08:01:12.810Z,91841.56
2019-04-04T08:03:38.536Z,91838.02
2019-04-04T08:06:04.307Z,91830.07
2019-04-04T08:08:30.057Z,91836.92
2019-04-04T08:10:55.837Z,91844.66
2019-04-04T08:13:21.518Z,91833.03
2019-04-04T08:15:47.244Z,91832.71
2019-04-04T08:18:13.005Z,91842.52
2019-04-04T08:20:38.789Z,91847.63
2019-04-04T08:23:04.482Z,91857.11
2019-04-04T08:25:30.477Z,91864.26
2019-04-04T08:27:56.154Z,91855.82
2019-04-04T08:30:21.868Z,91848.89
2019-04-04T08:32:47.636Z,91851.83
2019-04-04T08:35:13.332Z,91859.92
2019-04-04T08:37:39.036Z,91867.58
2019-04-04T08:40:05.489Z,91866.94
2019-04-04T08:42:31.249Z,91865.61
2019-04-04T08:44:57.021Z,91868.66
2019-04-04T08:47:23.020Z,91871.02
2019-04-04T08:49:48.805Z,91876.17
2019-04-04T08:52:16.795Z,91866.23
2019-04-04T08:54:42.043Z,91857.50
2019-04-04T08:57:08.070Z,91856.20
2019-04-04T08:59:33.762Z,91862.25
2019-04-04T09:01:59.816Z,91858.05
2019-04-04T09:04:25.509Z,91856.30
2019-04-04T09:06:51.554Z,91849.05
2019-04-04T09:09:17.242Z,91857.85
2019-04-04T09:11:42.956Z,91846.06
2019-04-04T09:14:09.009Z,91853.59
2019-04-04T09:16:34.719Z,91851.75
2019-04-04T09:19:00.416Z,91869.11
2019-04-04T09:21:26.195Z,91870.34
2019-04-04T09:23:52.283Z,91871.91
2019-04-04T09:26:17.981Z,91862.52
2019-04-04T09:28:43.688Z,91847.48
2019-04-04T09:31:09.459Z,91860.14
2019-04-04T09:33:35.221Z,91880.50
2019-04-04T09:36:01.287Z,91884.41
2019-04-04T09:38:29.125Z,91880.89
2019-04-04T09:40:54.880Z,91868.73
2019-04-04T09:43:20.653Z,91868.97
2019-04-04T09:45:46.723Z,91882.41
2019-04-04T09:48:12.685Z,91878.06
2019-04-04T09:50:38.404Z,91884.45
2019-04-04T09:53:04.189Z,91885.00
2019-04-04T09:55:29.928Z,91890.81
2019-04-04T09:57:55.686Z,91892.52
2019-04-04T10:00:22.649Z,91906.13
2019-04-04T10:02:48.426Z,91906.77
2019-04-04T10:05:14.495Z,91902.79
2019-04-04T10:07:40.320Z,91901.93
2019-04-04T10:10:06.437Z,91893.13
2019-04-04T10:12:32.418Z,91888.00
2019-04-04T10:14:58.119Z,91880.34
2019-04-04T10:17:23.884Z,91869.63
2019-04-04T10:19:49.640Z,91873.01
2019-04-04T10:22:15.741Z,91864.76
2019-04-04T10:24:41.424Z,91869.77
2019-04-04T10:27:07.135Z,91859.22
2019-04-04T10:29:33.196Z,91868.70
2019-04-04T10:31:58.889Z,91861.88
2019-04-04T10:34:24.596Z,91854.69
2019-04-04T10:36:50.660Z,91852.38
2019-04-04T10:39:28.328Z,91859.41
2019-04-04T10:41:43.965Z,91861.58
2019-04-04T10:44:10.064Z,91867.43
2019-04-04T10:46:36.038Z,91859.94
2019-04-04T10:49:01.768Z,91868.19
2019-04-04T10:51:27.560Z,91876.34
2019-04-04T10:53:53.318Z,91880.69
2019-04-04T10:56:19.076Z,91871.83
2019-04-04T10:58:44.845Z,91878.16
2019-04-04T11:01:10.606Z,91884.05
2019-04-04T11:03:36.722Z,91888.77
2019-04-04T11:06:02.694Z,91900.03
2019-04-04T11:08:28.663Z,91891.15
2019-04-04T11:10:54.424Z,91882.55
2019-04-04T11:13:32.540Z,91887.39
2019-04-04T11:15:48.172Z,91894.60
2019-04-04T11:18:13.939Z,91896.45
2019-04-04T11:20:39.945Z,91887.12
2019-04-04T11:23:05.717Z,91903.68
2019-04-04T11:25:31.471Z,91908.97
2019-04-04T11:27:57.254Z,91922.44
2019-04-04T11:30:23.011Z,91934.77
2019-04-04T11:32:49.132Z,91950.22
2019-04-04T11:35:15.054Z,91945.47
2019-04-04T11:37:40.846Z,91948.83
2019-04-04T11:40:06.887Z,91957.05
2019-04-04T11:42:32.652Z,91973.63
2019-04-04T11:44:58.723Z,91987.73
2019-04-04T11:47:24.744Z,92002.27
2019-04-04T11:49:50.769Z,92000.14
2019-04-04T11:52:16.462Z,92000.41
2019-04-04T11:55:01.357Z,91994.73
2019-04-04T11:57:27.479Z,92003.61
2019-04-04T11:59:53.470Z,92017.69
2019-04-04T12:02:19.189Z,92023.00
2019-04-04T12:04:44.964Z,92028.14
2019-04-04T12:07:10.734Z,92037.23
2019-04-04T12:09:36.425Z,92041.02
2019-04-04T12:12:02.397Z,92044.91
2019-04-04T12:14:28.092Z,92061.02
2019-04-04T12:16:53.791Z,92063.92
2019-04-04T12:19:19.854Z,92066.58
2019-04-04T12:21:45.836Z,92062.76
2019-04-04T12:24:11.548Z,92068.70
2019-04-04T12:26:37.620Z,92079.58
2019-04-04T12:29:03.313Z,92076.15
2019-04-04T12:31:29.016Z,92082.66
2019-04-04T12:33:55.076Z,92074.20
2019-04-04T12:36:24.683Z,92069.16
2019-04-04T12:38:48.415Z,92081.95
2019-04-04T12:41:14.192Z,92093.19
2019-04-04T12:43:40.297Z,92110.17
2019-04-04T12:46:05.984Z,92114.53
2019-04-04T12:48:31.702Z,92105.81
2019-04-04T12:50:57.757Z,92110.26
2019-04-04T12:53:23.458Z,92118.99
2019-04-04T12:55:49.503Z,92130.19
2019-04-04T12:58:15.197Z,92127.75
2019-04-04T13:00:40.903Z,92133.42
2019-04-04T13:03:06.606Z,92127.59
2019-04-04T13:05:32.321Z,92132.55
2019-04-04T13:07:58.042Z,92130.75
2019-04-04T13:10:32.819Z,92134.41
2019-04-04T13:12:51.669Z,92123.94
2019-04-04T13:15:17.440Z,92117.34
2019-04-04T13:17:43.507Z,92120.30
2019-04-04T13:20:09.206Z,92111.27
2019-04-04T13:22:35.298Z,92126.45
2019-04-04T13:25:00.958Z,92134.91
2019-04-04T13:27:26.659Z,92142.72
2019-04-04T13:29:52.814Z,92145.28
2019-04-04T13:32:18.503Z,92160.08
2019-04-04T13:34:44.224Z,92177.00
2019-04-04T13:37:09.987Z,92182.34
2019-04-04T13:39:35.759Z,92169.86
2019-04-04T13:42:01.777Z,92164.12
2019-04-04T13:44:27.491Z,92147.48
2019-04-04T13:46:53.182Z,92154.42
2019-04-04T13:49:19.164Z,92137.65
2019-04-04T13:51:44.842Z,92134.09
2019-04-04T13:54:10.905Z,92133.72
2019-04-04T13:56:36.605Z,92147.79
2019-04-04T13:59:05.667Z,92146.96
2019-04-04T14:01:29.987Z,92160.55
2019-04-04T14:03:55.757Z,92174.09
2019-04-04T14:06:21.454Z,92190.11
2019-04-04T14:08:47.153Z,92198.61
2019-04-04T14:11:12.922Z,92208.12
2019-04-04T14:13:38.676Z,92205.19
2019-04-04T14:16:04.453Z,92203.61
2019-04-04T14:18:39.458Z,92208.89
2019-04-04T14:21:03.880Z,92223.98
2019-04-04T14:23:25.553Z,92233.89
2019-04-04T14:25:51.321Z,92236.29
2019-04-04T14:28:17.784Z,92235.93
2019-04-04T14:30:43.552Z,92238.17
2019-04-04T14:33:09.466Z,92240.02
2019-04-04T14:35:35.236Z,92240.18
2019-04-04T14:38:01.288Z,92248.82
2019-04-04T14:40:26.986Z,92235.58
2019-04-04T14:42:52.709Z,92242.50
2019-04-04T14:45:18.413Z,92220.38
2019-04-04T14:47:44.466Z,92228.50
2019-04-04T14:50:10.162Z,92247.02
2019-04-04T14:52:39.165Z,92249.99
2019-04-04T14:55:04.475Z,92237.77
2019-04-04T14:57:30.247Z,92234.87
2019-04-04T14:59:56.021Z,92234.78
2019-04-04T15:02:21.820Z,92246.53
2019-04-04T15:04:47.548Z,92256.59
2019-04-04T15:07:13.580Z,92260.02
2019-04-04T15:09:39.332Z,92262.17
2019-04-04T15:12:05.370Z,92265.69
2019-04-04T15:14:31.085Z,92281.41
2019-04-04T15:16:56.857Z,92295.73
2019-04-04T15:19:22.640Z,92298.53
2019-04-04T15:21:48.697Z,92286.84
2019-04-04T15:24:14.390Z,92293.69
2019-04-04T15:26:40.437Z,92291.84
2019-04-04T15:29:06.438Z,92289.19
2019-04-04T15:31:32.143Z,92281.62
2019-04-04T15:33:58.154Z,92289.56
2019-04-04T15:36:23.881Z,92295.05
2019-04-04T15:38:49.562Z,92306.09
2019-04-04T15:41:15.306Z,92299.73
2019-04-04T15:43:40.998Z,92292.53
2019-04-04T15:46:06.991Z,92289.28
2019-04-04T15:48:32.681Z,92301.00
2019-04-04T15:50:58.395Z,92301.00
2019-04-04T15:53:24.402Z,92294.25
2019-04-04T15:55:50.127Z,92288.67
2019-04-04T15:58:15.809Z,92286.32
2019-04-04T16:00:41.806Z,92299.12
2019-04-04T16:03:07.515Z,92302.02
2019-04-04T16:05:33.232Z,92299.88
2019-04-04T16:07:59.214Z,92303.19
2019-04-04T16:10:25.240Z,92307.80
2019-04-04T16:12:51.163Z,92318.50
2019-04-04T16:15:17.133Z,92320.61
2019-04-04T16:17:42.838Z,92326.42
2019-04-04T16:20:09.639Z,92320.25
2019-04-04T16:22:35.417Z,92328.86
2019-04-04T16:25:01.212Z,92331.93
2019-04-04T16:27:27.206Z,92350.36
2019-04-04T16:29:53.173Z,92347.04
2019-04-04T16:32:19.150Z,92353.09
2019-04-04T16:34:45.137Z,92356.73
2019-04-04T16:37:10.836Z,92354.33
2019-04-04T16:39:36.536Z,92369.24
2019-04-04T16:42:02.754Z,92376.80
2019-04-04T16:44:29.118Z,92379.36
2019-04-04T16:46:54.914Z,92378.55
2019-04-04T16:49:20.609Z,92381.25
2019-04-04T16:51:46.677Z,92370.94
2019-04-04T16:54:12.701Z,92370.21
2019-04-04T16:56:38.399Z,92395.30
2019-04-04T16:59:04.109Z,92399.72
2019-04-04T17:01:30.105Z,92403.39
2019-04-04T17:04:01.525Z,92406.70
2019-04-04T17:06:23.506Z,92409.61
2019-04-04T17:08:49.207Z,92408.32
2019-04-04T17:11:14.898Z,92412.95
2019-04-04T17:13:40.597Z,92415.94
2019-04-04T17:16:06.610Z,92420.62
2019-04-04T17:18:32.591Z,92424.33
2019-04-04T17:20:58.288Z,92432.84
2019-04-04T17:23:24.006Z,92427.69
2019-04-04T17:25:49.709Z,92412.41
2019-04-04T17:28:15.725Z,92408.06
2019-04-04T17:30:41.835Z,92402.66
2019-04-04T17:33:08.258Z,92398.82
2019-04-04T17:35:34.116Z,92390.61
2019-04-04T17:37:59.818Z,92394.02
2019-04-04T17:40:25.522Z,92393.02
2019-04-04T17:42:51.214Z,92393.86
2019-04-04T17:45:17.367Z,92409.16
2019-04-04T17:47:43.195Z,92414.31
2019-04-04T17:50:10.746Z,92416.13
2019-04-04T17:52:36.704Z,92434.77
2019-04-04T17:55:03.394Z,92453.67
2019-04-04T17:57:29.516Z,92442.56
2019-04-04T17:59:55.662Z,92444.10
2019-04-04T18:02:21.357Z,92449.59
2019-04-04T18:04:48.452Z,92447.50
2019-04-04T18:07:14.658Z,92446.22
2019-04-04T18:09:40.342Z,92460.69
2019-04-04T18:12:06.049Z,92457.34
2019-04-04T18:14:32.078Z,92461.72
2019-04-04T18:16:58.143Z,92465.61
2019-04-04T18:19:24.261Z,92469.00
2019-04-04T18:21:50.019Z,92476.22
2019-04-04T18:24:15.718Z,92489.13
2019-04-04T18:26:41.433Z,92503.38
2019-04-04T18:29:07.390Z,92519.45
2019-04-04T18:31:33.096Z,92531.55
2019-04-04T18:33:59.130Z,92539.05
2019-04-04T18:36:25.390Z,92539.78
2019-04-04T18:38:51.645Z,92535.63
2019-04-04T18:41:17.420Z,92524.25
2019-04-04T18:43:43.438Z,92523.20
2019-04-04T18:46:09.403Z,92532.80
2019-04-04T18:48:35.101Z,92536.41
2019-04-04T18:51:01.145Z,92530.73
2019-04-04T18:53:26.933Z,92532.27
2019-04-04T18:55:52.627Z,92522.70
2019-04-04T18:58:18.334Z,92530.69
2019-04-04T19:00:44.477Z,92536.91
2019-04-04T19:03:10.555Z,92539.98
2019-04-04T19:05:36.316Z,92542.08
2019-04-04T19:08:02.018Z,92545.16
2019-04-04T19:10:27.754Z,92547.73
2019-04-04T19:13:04.737Z,92551.87
2019-04-04T19:15:21.064Z,92553.15
2019-04-04T19:17:46.766Z,92555.24
2019-04-04T19:20:12.861Z,92553.94
2019-04-04T19:22:38.947Z,92561.16
2019-04-04T19:25:04.749Z,92557.52
2019-04-04T19:27:30.499Z,92570.46
2019-04-04T19:29:57.431Z,92572.30
2019-04-04T19:32:23.120Z,92575.13
2019-04-04T19:34:48.833Z,92578.54
2019-04-04T19:37:14.945Z,92573.88
2019-04-04T19:39:41.012Z,92579.03
2019-04-04T19:42:07.194Z,92571.02
2019-04-04T19:44:33.179Z,92572.83
2019-04-04T19:46:59.165Z,92579.03
2019-04-04T19:49:24.979Z,92581.36
2019-04-04T19:51:50.670Z,92581.84
2019-04-04T19:54:19.090Z,92589.34
2019-04-04T19:56:44.048Z,92591.70
2019-04-04T19:59:10.022Z,92597.39
2019-04-04T20:01:36.046Z,92598.44
2019-04-04T20:04:01.751Z,92598.19
2019-04-04T20:06:28.108Z,92599.47
2019-04-04T20:08:53.971Z,92595.14
2019-04-04T20:11:19.954Z,92595.16
2019-04-04T20:13:45.658Z,92592.57
2019-04-04T20:16:12.459Z,92594.66
2019-04-04T20:18:38.294Z,92596.70
2019-04-04T20:21:04.143Z,92602.65
2019-04-04T20:23:30.172Z,92598.77
2019-04-04T20:25:55.878Z,92605.25
2019-04-04T20:28:21.618Z,92616.64
2019-04-04T20:30:47.326Z,92619.48
2019-04-04T20:33:13.562Z,92608.09
2019-04-04T20:35:39.614Z,92611.46
2019-04-04T20:38:05.966Z,92616.63
2019-04-04T20:40:31.696Z,92627.23
2019-04-04T20:42:57.806Z,92627.00
2019-04-04T20:45:23.533Z,92625.96
2019-04-04T20:47:49.218Z,92624.92
2019-04-04T20:50:14.940Z,92621.58
2019-04-04T20:52:40.629Z,92612.78
2019-04-04T20:55:06.605Z,92613.29
2019-04-04T20:57:32.623Z,92615.63
